sensor_id;sensor_type;location;lat;lon;timestamp;P1;durP1;ratioP1;P2;durP2;ratioP2
22634;SDS011;11484;50.858;4.384;2022-12-07T00:01:18;16.67;;;11.75;;
22634;SDS011;11484;50.858;4.384;2022-12-07T00:03:44;15.27;;;11.48;;
22634;SDS011;11484;50.858;4.384;2022-12-07T00:06:11;19.73;;;12.05;;
22634;SDS011;11484;50.858;4.384;2022-12-07T00:08:38;19.77;;;12.18;;
22634;SDS011;11484;50.858;4.384;2022-12-07T00:11:11;20.67;;;12.32;;
22634;SDS011;11484;50.858;4.384;2022-12-07T00:13:39;19.30;;;12.35;;
22634;SDS011;11484;50.858;4.384;2022-12-07T00:16:07;20.75;;;12.95;;
22634;SDS011;11484;50.858;4.384;2022-12-07T00:18:40;21.48;;;12.93;;
22634;SDS011;11484;50.858;4.384;2022-12-07T00:21:09;22.55;;;13.07;;
22634;SDS011;11484;50.858;4.384;2022-12-07T00:26:06;18.05;;;12.30;;
22634;SDS011;11484;50.858;4.384;2022-12-07T00:28:35;18.67;;;13.00;;
22634;SDS011;11484;50.858;4.384;2022-12-07T00:31:20;18.15;;;13.13;;
22634;SDS011;11484;50.858;4.384;2022-12-07T00:33:49;17.15;;;13.10;;
22634;SDS011;11484;50.858;4.384;2022-12-07T00:36:16;21.33;;;13.30;;
22634;SDS011;11484;50.858;4.384;2022-12-07T00:38:44;21.27;;;13.63;;
22634;SDS011;11484;50.858;4.384;2022-12-07T00:41:14;24.17;;;13.98;;
22634;SDS011;11484;50.858;4.384;2022-12-07T00:43:42;21.30;;;13.65;;
22634;SDS011;11484;50.858;4.384;2022-12-07T00:46:09;20.08;;;13.38;;
22634;SDS011;11484;50.858;4.384;2022-12-07T00:48:35;18.88;;;13.15;;
22634;SDS011;11484;50.858;4.384;2022-12-07T00:51:02;20.60;;;14.02;;
22634;SDS011;11484;50.858;4.384;2022-12-07T00:53:28;22.33;;;14.25;;
22634;SDS011;11484;50.858;4.384;2022-12-07T00:55:54;25.65;;;15.10;;
22634;SDS011;11484;50.858;4.384;2022-12-07T00:58:23;20.95;;;14.32;;
22634;SDS011;11484;50.858;4.384;2022-12-07T01:00:49;22.95;;;14.75;;
22634;SDS011;11484;50.858;4.384;2022-12-07T01:03:15;24.67;;;15.60;;
22634;SDS011;11484;50.858;4.384;2022-12-07T01:05:49;22.13;;;14.88;;
22634;SDS011;11484;50.858;4.384;2022-12-07T01:08:16;22.45;;;14.98;;
22634;SDS011;11484;50.858;4.384;2022-12-07T01:10:42;21.75;;;15.30;;
22634;SDS011;11484;50.858;4.384;2022-12-07T01:13:07;21.42;;;15.25;;
22634;SDS011;11484;50.858;4.384;2022-12-07T01:15:33;27.40;;;16.70;;
22634;SDS011;11484;50.858;4.384;2022-12-07T01:17:59;23.10;;;15.70;;
22634;SDS011;11484;50.858;4.384;2022-12-07T01:20:25;24.40;;;15.88;;
22634;SDS011;11484;50.858;4.384;2022-12-07T01:22:50;23.08;;;15.70;;
22634;SDS011;11484;50.858;4.384;2022-12-07T01:25:16;20.30;;;14.82;;
22634;SDS011;11484;50.858;4.384;2022-12-07T01:27:43;18.98;;;14.02;;
22634;SDS011;11484;50.858;4.384;2022-12-07T01:30:09;21.08;;;15.10;;
22634;SDS011;11484;50.858;4.384;2022-12-07T01:32:35;24.40;;;15.88;;
22634;SDS011;11484;50.858;4.384;2022-12-07T01:35:01;24.25;;;15.13;;
22634;SDS011;11484;50.858;4.384;2022-12-07T01:37:27;21.80;;;14.77;;
22634;SDS011;11484;50.858;4.384;2022-12-07T01:39:53;19.95;;;14.68;;
22634;SDS011;11484;50.858;4.384;2022-12-07T01:42:18;21.73;;;14.10;;
22634;SDS011;11484;50.858;4.384;2022-12-07T01:45:16;19.80;;;14.02;;
22634;SDS011;11484;50.858;4.384;2022-12-07T01:47:53;17.90;;;13.30;;
22634;SDS011;11484;50.858;4.384;2022-12-07T01:50:21;22.42;;;14.68;;
22634;SDS011;11484;50.858;4.384;2022-12-07T01:52:50;22.90;;;14.23;;
22634;SDS011;11484;50.858;4.384;2022-12-07T01:55:16;21.48;;;14.70;;
22634;SDS011;11484;50.858;4.384;2022-12-07T01:57:44;22.48;;;14.43;;
22634;SDS011;11484;50.858;4.384;2022-12-07T02:00:13;18.80;;;13.70;;
22634;SDS011;11484;50.858;4.384;2022-12-07T02:02:44;21.15;;;14.77;;
22634;SDS011;11484;50.858;4.384;2022-12-07T02:05:34;21.92;;;14.13;;
22634;SDS011;11484;50.858;4.384;2022-12-07T02:08:01;21.73;;;14.35;;
22634;SDS011;11484;50.858;4.384;2022-12-07T02:10:29;19.67;;;14.02;;
22634;SDS011;11484;50.858;4.384;2022-12-07T02:13:06;21.38;;;14.52;;
22634;SDS011;11484;50.858;4.384;2022-12-07T02:15:48;20.70;;;14.63;;
22634;SDS011;11484;50.858;4.384;2022-12-07T02:24:48;22.90;;;13.93;;
22634;SDS011;11484;50.858;4.384;2022-12-07T02:30:05;18.02;;;12.40;;
22634;SDS011;11484;50.858;4.384;2022-12-07T02:35:11;22.23;;;13.15;;
22634;SDS011;11484;50.858;4.384;2022-12-07T02:40:34;18.77;;;12.95;;
22634;SDS011;11484;50.858;4.384;2022-12-07T02:45:41;19.63;;;11.83;;
22634;SDS011;11484;50.858;4.384;2022-12-07T02:48:11;21.88;;;13.32;;
22634;SDS011;11484;50.858;4.384;2022-12-07T02:50:43;17.63;;;12.07;;
22634;SDS011;11484;50.858;4.384;2022-12-07T02:55:56;19.13;;;12.25;;
22634;SDS011;11484;50.858;4.384;2022-12-07T02:58:38;18.73;;;12.13;;
22634;SDS011;11484;50.858;4.384;2022-12-07T03:04:19;17.02;;;12.23;;
22634;SDS011;11484;50.858;4.384;2022-12-07T03:06:53;16.63;;;11.63;;
22634;SDS011;11484;50.858;4.384;2022-12-07T03:10:07;17.13;;;13.02;;
22634;SDS011;11484;50.858;4.384;2022-12-07T03:12:34;17.65;;;12.07;;
22634;SDS011;11484;50.858;4.384;2022-12-07T03:15:26;16.23;;;11.63;;
22634;SDS011;11484;50.858;4.384;2022-12-07T03:17:59;17.23;;;11.90;;
22634;SDS011;11484;50.858;4.384;2022-12-07T03:20:27;17.35;;;11.43;;
22634;SDS011;11484;50.858;4.384;2022-12-07T03:22:57;18.35;;;11.90;;
22634;SDS011;11484;50.858;4.384;2022-12-07T03:25:24;18.35;;;11.85;;
22634;SDS011;11484;50.858;4.384;2022-12-07T03:27:53;17.38;;;11.82;;
22634;SDS011;11484;50.858;4.384;2022-12-07T03:30:24;19.58;;;12.50;;
22634;SDS011;11484;50.858;4.384;2022-12-07T03:35:46;16.98;;;12.35;;
22634;SDS011;11484;50.858;4.384;2022-12-07T03:38:18;16.38;;;11.38;;
22634;SDS011;11484;50.858;4.384;2022-12-07T03:43:15;17.58;;;11.80;;
22634;SDS011;11484;50.858;4.384;2022-12-07T03:45:43;16.67;;;11.88;;
22634;SDS011;11484;50.858;4.384;2022-12-07T03:48:28;18.10;;;10.98;;
22634;SDS011;11484;50.858;4.384;2022-12-07T03:51:28;19.65;;;10.95;;
22634;SDS011;11484;50.858;4.384;2022-12-07T03:56:37;17.42;;;10.80;;
22634;SDS011;11484;50.858;4.384;2022-12-07T03:59:04;16.25;;;11.45;;
22634;SDS011;11484;50.858;4.384;2022-12-07T04:01:31;20.75;;;11.43;;
22634;SDS011;11484;50.858;4.384;2022-12-07T04:03:56;16.58;;;11.45;;
22634;SDS011;11484;50.858;4.384;2022-12-07T04:06:22;15.45;;;10.80;;
22634;SDS011;11484;50.858;4.384;2022-12-07T04:08:48;18.15;;;11.60;;
22634;SDS011;11484;50.858;4.384;2022-12-07T04:11:14;18.50;;;11.50;;
22634;SDS011;11484;50.858;4.384;2022-12-07T04:13:39;15.20;;;11.25;;
22634;SDS011;11484;50.858;4.384;2022-12-07T04:16:25;15.43;;;11.38;;
22634;SDS011;11484;50.858;4.384;2022-12-07T04:18:51;16.35;;;11.38;;
22634;SDS011;11484;50.858;4.384;2022-12-07T04:21:16;13.63;;;10.60;;
22634;SDS011;11484;50.858;4.384;2022-12-07T04:23:42;17.33;;;10.52;;
22634;SDS011;11484;50.858;4.384;2022-12-07T04:26:08;17.65;;;10.95;;
22634;SDS011;11484;50.858;4.384;2022-12-07T04:28:34;14.38;;;10.25;;
22634;SDS011;11484;50.858;4.384;2022-12-07T04:30:59;16.15;;;10.90;;
22634;SDS011;11484;50.858;4.384;2022-12-07T04:33:25;21.25;;;12.98;;
22634;SDS011;11484;50.858;4.384;2022-12-07T04:35:51;19.67;;;12.30;;
22634;SDS011;11484;50.858;4.384;2022-12-07T04:38:17;19.55;;;13.15;;
22634;SDS011;11484;50.858;4.384;2022-12-07T04:40:43;17.05;;;13.63;;
22634;SDS011;11484;50.858;4.384;2022-12-07T04:43:08;36.75;;;23.13;;
22634;SDS011;11484;50.858;4.384;2022-12-07T04:45:34;31.77;;;19.73;;
22634;SDS011;11484;50.858;4.384;2022-12-07T04:48:00;22.85;;;15.25;;
22634;SDS011;11484;50.858;4.384;2022-12-07T04:50:26;21.85;;;14.60;;
22634;SDS011;11484;50.858;4.384;2022-12-07T04:52:51;23.27;;;15.32;;
22634;SDS011;11484;50.858;4.384;2022-12-07T04:55:17;24.38;;;15.18;;
22634;SDS011;11484;50.858;4.384;2022-12-07T04:57:43;23.20;;;15.73;;
22634;SDS011;11484;50.858;4.384;2022-12-07T05:00:08;19.42;;;14.35;;
22634;SDS011;11484;50.858;4.384;2022-12-07T05:02:34;17.92;;;13.65;;
22634;SDS011;11484;50.858;4.384;2022-12-07T05:05:00;19.20;;;13.50;;
22634;SDS011;11484;50.858;4.384;2022-12-07T05:07:26;21.02;;;13.57;;
22634;SDS011;11484;50.858;4.384;2022-12-07T05:09:52;18.00;;;13.32;;
22634;SDS011;11484;50.858;4.384;2022-12-07T05:12:18;20.70;;;13.88;;
22634;SDS011;11484;50.858;4.384;2022-12-07T05:14:43;21.67;;;13.77;;
22634;SDS011;11484;50.858;4.384;2022-12-07T05:17:09;21.40;;;13.70;;
22634;SDS011;11484;50.858;4.384;2022-12-07T05:19:36;18.90;;;12.82;;
22634;SDS011;11484;50.858;4.384;2022-12-07T05:22:02;17.50;;;12.32;;
22634;SDS011;11484;50.858;4.384;2022-12-07T05:24:28;19.80;;;12.20;;
22634;SDS011;11484;50.858;4.384;2022-12-07T05:26:53;18.95;;;12.23;;
22634;SDS011;11484;50.858;4.384;2022-12-07T05:29:19;19.83;;;12.80;;
22634;SDS011;11484;50.858;4.384;2022-12-07T05:31:45;19.75;;;13.35;;
22634;SDS011;11484;50.858;4.384;2022-12-07T05:34:11;17.65;;;13.15;;
22634;SDS011;11484;50.858;4.384;2022-12-07T05:36:37;20.10;;;13.05;;
22634;SDS011;11484;50.858;4.384;2022-12-07T05:39:03;19.17;;;12.02;;
22634;SDS011;11484;50.858;4.384;2022-12-07T05:41:29;17.75;;;11.52;;
22634;SDS011;11484;50.858;4.384;2022-12-07T05:44:14;14.73;;;10.88;;
22634;SDS011;11484;50.858;4.384;2022-12-07T05:46:40;20.85;;;12.15;;
22634;SDS011;11484;50.858;4.384;2022-12-07T05:49:05;18.08;;;12.50;;
22634;SDS011;11484;50.858;4.384;2022-12-07T05:51:31;20.88;;;13.95;;
22634;SDS011;11484;50.858;4.384;2022-12-07T05:53:57;18.52;;;11.73;;
22634;SDS011;11484;50.858;4.384;2022-12-07T05:56:23;19.10;;;11.73;;
22634;SDS011;11484;50.858;4.384;2022-12-07T05:58:49;21.75;;;12.70;;
22634;SDS011;11484;50.858;4.384;2022-12-07T06:01:33;18.30;;;11.50;;
22634;SDS011;11484;50.858;4.384;2022-12-07T06:03:59;17.60;;;11.30;;
22634;SDS011;11484;50.858;4.384;2022-12-07T06:06:25;17.40;;;11.80;;
22634;SDS011;11484;50.858;4.384;2022-12-07T06:08:51;19.08;;;11.07;;
22634;SDS011;11484;50.858;4.384;2022-12-07T06:11:16;17.08;;;11.52;;
22634;SDS011;11484;50.858;4.384;2022-12-07T06:14:01;18.67;;;10.77;;
22634;SDS011;11484;50.858;4.384;2022-12-07T06:16:26;16.05;;;10.93;;
22634;SDS011;11484;50.858;4.384;2022-12-07T06:18:53;19.92;;;11.25;;
22634;SDS011;11484;50.858;4.384;2022-12-07T06:21:18;17.83;;;11.30;;
22634;SDS011;11484;50.858;4.384;2022-12-07T06:23:44;18.10;;;10.90;;
22634;SDS011;11484;50.858;4.384;2022-12-07T06:26:10;14.02;;;10.40;;
22634;SDS011;11484;50.858;4.384;2022-12-07T06:28:36;16.90;;;11.18;;
22634;SDS011;11484;50.858;4.384;2022-12-07T06:31:01;15.25;;;9.95;;
22634;SDS011;11484;50.858;4.384;2022-12-07T06:33:28;17.63;;;10.63;;
22634;SDS011;11484;50.858;4.384;2022-12-07T06:35:54;17.30;;;10.02;;
22634;SDS011;11484;50.858;4.384;2022-12-07T06:38:21;12.95;;;8.90;;
22634;SDS011;11484;50.858;4.384;2022-12-07T06:40:47;15.65;;;9.73;;
22634;SDS011;11484;50.858;4.384;2022-12-07T06:43:16;15.95;;;9.38;;
22634;SDS011;11484;50.858;4.384;2022-12-07T06:45:42;17.48;;;9.95;;
22634;SDS011;11484;50.858;4.384;2022-12-07T06:48:08;14.52;;;9.70;;
22634;SDS011;11484;50.858;4.384;2022-12-07T06:50:33;14.35;;;9.25;;
22634;SDS011;11484;50.858;4.384;2022-12-07T06:53:00;13.18;;;9.25;;
22634;SDS011;11484;50.858;4.384;2022-12-07T06:55:26;13.35;;;9.18;;
22634;SDS011;11484;50.858;4.384;2022-12-07T06:57:51;14.07;;;9.18;;
22634;SDS011;11484;50.858;4.384;2022-12-07T07:00:17;15.23;;;9.13;;
22634;SDS011;11484;50.858;4.384;2022-12-07T07:02:43;15.18;;;9.05;;
22634;SDS011;11484;50.858;4.384;2022-12-07T07:05:09;17.25;;;9.10;;
22634;SDS011;11484;50.858;4.384;2022-12-07T07:07:35;14.77;;;8.65;;
22634;SDS011;11484;50.858;4.384;2022-12-07T07:10:00;16.40;;;9.57;;
22634;SDS011;11484;50.858;4.384;2022-12-07T07:12:26;26.98;;;16.98;;
22634;SDS011;11484;50.858;4.384;2022-12-07T07:14:52;26.25;;;15.32;;
22634;SDS011;11484;50.858;4.384;2022-12-07T07:17:18;30.83;;;18.77;;
22634;SDS011;11484;50.858;4.384;2022-12-07T07:19:43;26.23;;;15.52;;
22634;SDS011;11484;50.858;4.384;2022-12-07T07:22:09;21.05;;;12.93;;
22634;SDS011;11484;50.858;4.384;2022-12-07T07:24:39;18.75;;;12.18;;
22634;SDS011;11484;50.858;4.384;2022-12-07T07:27:04;16.98;;;11.57;;
22634;SDS011;11484;50.858;4.384;2022-12-07T07:29:30;18.20;;;11.23;;
22634;SDS011;11484;50.858;4.384;2022-12-07T07:31:56;18.60;;;10.48;;
22634;SDS011;11484;50.858;4.384;2022-12-07T07:34:22;15.65;;;10.63;;
22634;SDS011;11484;50.858;4.384;2022-12-07T07:36:47;16.73;;;10.45;;
22634;SDS011;11484;50.858;4.384;2022-12-07T07:39:13;15.70;;;10.10;;
22634;SDS011;11484;50.858;4.384;2022-12-07T07:41:39;15.57;;;10.30;;
22634;SDS011;11484;50.858;4.384;2022-12-07T07:44:05;15.45;;;9.70;;
22634;SDS011;11484;50.858;4.384;2022-12-07T07:46:31;15.52;;;10.13;;
22634;SDS011;11484;50.858;4.384;2022-12-07T07:48:58;18.70;;;11.80;;
22634;SDS011;11484;50.858;4.384;2022-12-07T07:51:23;17.30;;;11.93;;
22634;SDS011;11484;50.858;4.384;2022-12-07T07:53:49;16.00;;;10.73;;
22634;SDS011;11484;50.858;4.384;2022-12-07T07:56:15;17.98;;;9.55;;
22634;SDS011;11484;50.858;4.384;2022-12-07T07:58:41;13.35;;;9.18;;
22634;SDS011;11484;50.858;4.384;2022-12-07T08:01:07;17.42;;;9.52;;
22634;SDS011;11484;50.858;4.384;2022-12-07T08:03:33;17.45;;;10.10;;
22634;SDS011;11484;50.858;4.384;2022-12-07T08:05:59;18.13;;;9.38;;
22634;SDS011;11484;50.858;4.384;2022-12-07T08:08:24;12.90;;;9.18;;
22634;SDS011;11484;50.858;4.384;2022-12-07T08:10:50;17.15;;;10.43;;
22634;SDS011;11484;50.858;4.384;2022-12-07T08:13:16;14.73;;;9.52;;
22634;SDS011;11484;50.858;4.384;2022-12-07T08:15:45;14.40;;;10.30;;
22634;SDS011;11484;50.858;4.384;2022-12-07T08:20:39;15.85;;;9.25;;
22634;SDS011;11484;50.858;4.384;2022-12-07T08:23:06;14.25;;;9.10;;
22634;SDS011;11484;50.858;4.384;2022-12-07T08:25:33;13.60;;;9.20;;
22634;SDS011;11484;50.858;4.384;2022-12-07T08:28:00;17.70;;;10.32;;
22634;SDS011;11484;50.858;4.384;2022-12-07T08:30:26;20.73;;;9.90;;
22634;SDS011;11484;50.858;4.384;2022-12-07T08:32:53;15.68;;;9.30;;
22634;SDS011;11484;50.858;4.384;2022-12-07T08:35:19;16.55;;;9.77;;
22634;SDS011;11484;50.858;4.384;2022-12-07T08:37:44;15.02;;;10.40;;
22634;SDS011;11484;50.858;4.384;2022-12-07T08:40:11;16.13;;;10.30;;
22634;SDS011;11484;50.858;4.384;2022-12-07T08:42:43;14.30;;;9.82;;
22634;SDS011;11484;50.858;4.384;2022-12-07T08:45:14;14.57;;;9.70;;
22634;SDS011;11484;50.858;4.384;2022-12-07T08:50:20;21.20;;;13.30;;
22634;SDS011;11484;50.858;4.384;2022-12-07T08:52:53;17.98;;;12.32;;
22634;SDS011;11484;50.858;4.384;2022-12-07T08:55:20;20.15;;;12.02;;
22634;SDS011;11484;50.858;4.384;2022-12-07T08:57:46;19.55;;;10.63;;
22634;SDS011;11484;50.858;4.384;2022-12-07T09:00:13;19.50;;;12.10;;
22634;SDS011;11484;50.858;4.384;2022-12-07T09:02:39;19.02;;;11.25;;
22634;SDS011;11484;50.858;4.384;2022-12-07T09:05:05;19.80;;;11.48;;
22634;SDS011;11484;50.858;4.384;2022-12-07T09:07:32;14.00;;;9.77;;
22634;SDS011;11484;50.858;4.384;2022-12-07T09:09:59;17.17;;;9.98;;
22634;SDS011;11484;50.858;4.384;2022-12-07T09:12:25;16.08;;;8.23;;
22634;SDS011;11484;50.858;4.384;2022-12-07T09:14:51;15.30;;;8.65;;
22634;SDS011;11484;50.858;4.384;2022-12-07T09:17:16;14.10;;;8.05;;
22634;SDS011;11484;50.858;4.384;2022-12-07T09:19:42;14.55;;;8.05;;
22634;SDS011;11484;50.858;4.384;2022-12-07T09:22:08;21.45;;;9.07;;
22634;SDS011;11484;50.858;4.384;2022-12-07T09:24:34;14.20;;;8.38;;
22634;SDS011;11484;50.858;4.384;2022-12-07T09:27:00;16.08;;;8.68;;
22634;SDS011;11484;50.858;4.384;2022-12-07T09:29:26;15.65;;;7.72;;
22634;SDS011;11484;50.858;4.384;2022-12-07T09:31:52;11.95;;;8.20;;
22634;SDS011;11484;50.858;4.384;2022-12-07T09:34:18;16.50;;;8.68;;
22634;SDS011;11484;50.858;4.384;2022-12-07T09:36:51;16.17;;;8.20;;
22634;SDS011;11484;50.858;4.384;2022-12-07T09:39:18;16.20;;;9.02;;
22634;SDS011;11484;50.858;4.384;2022-12-07T09:41:43;14.45;;;7.75;;
22634;SDS011;11484;50.858;4.384;2022-12-07T09:44:22;15.40;;;8.63;;
22634;SDS011;11484;50.858;4.384;2022-12-07T09:46:50;16.55;;;8.90;;
22634;SDS011;11484;50.858;4.384;2022-12-07T09:49:18;18.08;;;8.52;;
22634;SDS011;11484;50.858;4.384;2022-12-07T09:51:46;12.05;;;8.15;;
22634;SDS011;11484;50.858;4.384;2022-12-07T09:54:13;18.45;;;8.93;;
22634;SDS011;11484;50.858;4.384;2022-12-07T09:56:41;13.77;;;7.72;;
22634;SDS011;11484;50.858;4.384;2022-12-07T09:59:26;14.48;;;8.32;;
22634;SDS011;11484;50.858;4.384;2022-12-07T10:01:52;15.07;;;8.73;;
22634;SDS011;11484;50.858;4.384;2022-12-07T10:04:18;16.75;;;9.05;;
22634;SDS011;11484;50.858;4.384;2022-12-07T10:06:47;14.05;;;8.10;;
22634;SDS011;11484;50.858;4.384;2022-12-07T10:09:14;16.88;;;8.45;;
22634;SDS011;11484;50.858;4.384;2022-12-07T10:12:01;16.33;;;8.75;;
22634;SDS011;11484;50.858;4.384;2022-12-07T10:14:30;15.95;;;9.32;;
22634;SDS011;11484;50.858;4.384;2022-12-07T10:16:59;15.73;;;9.60;;
22634;SDS011;11484;50.858;4.384;2022-12-07T10:19:29;17.30;;;9.70;;
22634;SDS011;11484;50.858;4.384;2022-12-07T10:22:11;20.80;;;9.88;;
22634;SDS011;11484;50.858;4.384;2022-12-07T10:24:40;17.13;;;8.52;;
22634;SDS011;11484;50.858;4.384;2022-12-07T10:27:29;17.80;;;8.65;;
22634;SDS011;11484;50.858;4.384;2022-12-07T10:29:56;16.17;;;8.40;;
22634;SDS011;11484;50.858;4.384;2022-12-07T10:32:31;14.07;;;8.30;;
22634;SDS011;11484;50.858;4.384;2022-12-07T10:37:43;13.00;;;8.25;;
22634;SDS011;11484;50.858;4.384;2022-12-07T10:40:52;19.23;;;8.43;;
22634;SDS011;11484;50.858;4.384;2022-12-07T10:43:01;14.18;;;8.30;;
22634;SDS011;11484;50.858;4.384;2022-12-07T10:45:41;13.13;;;7.60;;
22634;SDS011;11484;50.858;4.384;2022-12-07T10:54:10;13.40;;;7.22;;
22634;SDS011;11484;50.858;4.384;2022-12-07T11:18:26;8.13;;;5.72;;
22634;SDS011;11484;50.858;4.384;2022-12-07T11:23:56;12.13;;;5.82;;
22634;SDS011;11484;50.858;4.384;2022-12-07T11:26:47;11.93;;;5.90;;
22634;SDS011;11484;50.858;4.384;2022-12-07T11:32:28;12.00;;;6.03;;
22634;SDS011;11484;50.858;4.384;2022-12-07T11:37:41;11.73;;;6.57;;
22634;SDS011;11484;50.858;4.384;2022-12-07T11:42:59;12.90;;;5.70;;
22634;SDS011;11484;50.858;4.384;2022-12-07T11:45:37;9.00;;;5.90;;
22634;SDS011;11484;50.858;4.384;2022-12-07T11:48:10;11.02;;;5.47;;
22634;SDS011;11484;50.858;4.384;2022-12-07T11:50:47;11.35;;;5.90;;
22634;SDS011;11484;50.858;4.384;2022-12-07T11:53:26;15.88;;;5.82;;
22634;SDS011;11484;50.858;4.384;2022-12-07T11:56:08;15.55;;;6.10;;
22634;SDS011;11484;50.858;4.384;2022-12-07T12:03:45;7.78;;;5.53;;
22634;SDS011;11484;50.858;4.384;2022-12-07T12:06:11;12.13;;;5.07;;
22634;SDS011;11484;50.858;4.384;2022-12-07T12:08:49;11.35;;;5.18;;
22634;SDS011;11484;50.858;4.384;2022-12-07T12:17:15;7.65;;;3.97;;
22634;SDS011;11484;50.858;4.384;2022-12-07T12:20:13;8.02;;;3.63;;
22634;SDS011;11484;50.858;4.384;2022-12-07T12:26:01;7.78;;;4.15;;
22634;SDS011;11484;50.858;4.384;2022-12-07T12:28:29;8.15;;;3.90;;
22634;SDS011;11484;50.858;4.384;2022-12-07T12:33:33;8.52;;;4.70;;
22634;SDS011;11484;50.858;4.384;2022-12-07T12:54:57;7.43;;;2.95;;
22634;SDS011;11484;50.858;4.384;2022-12-07T12:57:37;7.03;;;2.63;;
22634;SDS011;11484;50.858;4.384;2022-12-07T13:00:20;8.05;;;3.30;;
22634;SDS011;11484;50.858;4.384;2022-12-07T13:05:47;5.82;;;2.55;;
22634;SDS011;11484;50.858;4.384;2022-12-07T13:08:22;7.03;;;2.90;;
22634;SDS011;11484;50.858;4.384;2022-12-07T13:10:51;7.75;;;4.03;;
22634;SDS011;11484;50.858;4.384;2022-12-07T13:15:51;7.63;;;3.83;;
22634;SDS011;11484;50.858;4.384;2022-12-07T13:18:40;8.73;;;4.05;;
22634;SDS011;11484;50.858;4.384;2022-12-07T13:23:36;9.27;;;3.80;;
22634;SDS011;11484;50.858;4.384;2022-12-07T13:42:27;10.23;;;3.10;;
22634;SDS011;11484;50.858;4.384;2022-12-07T13:44:58;8.43;;;3.88;;
22634;SDS011;11484;50.858;4.384;2022-12-07T13:49:52;8.35;;;4.93;;
22634;SDS011;11484;50.858;4.384;2022-12-07T13:52:27;8.10;;;2.97;;
22634;SDS011;11484;50.858;4.384;2022-12-07T13:54:55;7.68;;;2.88;;
22634;SDS011;11484;50.858;4.384;2022-12-07T13:57:30;8.05;;;2.90;;
22634;SDS011;11484;50.858;4.384;2022-12-07T14:00:02;13.32;;;5.45;;
22634;SDS011;11484;50.858;4.384;2022-12-07T14:02:31;7.43;;;3.20;;
22634;SDS011;11484;50.858;4.384;2022-12-07T14:10:31;10.55;;;3.80;;
22634;SDS011;11484;50.858;4.384;2022-12-07T14:13:02;6.72;;;3.60;;
22634;SDS011;11484;50.858;4.384;2022-12-07T14:15:44;5.75;;;2.83;;
22634;SDS011;11484;50.858;4.384;2022-12-07T14:18:26;9.32;;;4.50;;
22634;SDS011;11484;50.858;4.384;2022-12-07T14:26:49;5.95;;;2.90;;
22634;SDS011;11484;50.858;4.384;2022-12-07T14:29:28;7.70;;;3.08;;
22634;SDS011;11484;50.858;4.384;2022-12-07T14:32:17;7.72;;;4.40;;
22634;SDS011;11484;50.858;4.384;2022-12-07T14:34:53;8.20;;;4.65;;
22634;SDS011;11484;50.858;4.384;2022-12-07T14:37:36;8.98;;;4.53;;
22634;SDS011;11484;50.858;4.384;2022-12-07T14:40:03;7.00;;;4.20;;
22634;SDS011;11484;50.858;4.384;2022-12-07T14:42:30;8.55;;;3.92;;
22634;SDS011;11484;50.858;4.384;2022-12-07T14:44:57;7.18;;;3.15;;
22634;SDS011;11484;50.858;4.384;2022-12-07T14:47:24;4.53;;;2.85;;
22634;SDS011;11484;50.858;4.384;2022-12-07T14:49:51;9.05;;;3.30;;
22634;SDS011;11484;50.858;4.384;2022-12-07T14:52:21;8.07;;;2.20;;
22634;SDS011;11484;50.858;4.384;2022-12-07T14:54:49;4.80;;;2.67;;
22634;SDS011;11484;50.858;4.384;2022-12-07T14:57:16;6.72;;;2.80;;
22634;SDS011;11484;50.858;4.384;2022-12-07T14:59:41;7.82;;;2.88;;
22634;SDS011;11484;50.858;4.384;2022-12-07T15:02:09;4.32;;;2.13;;
22634;SDS011;11484;50.858;4.384;2022-12-07T15:04:38;5.88;;;2.92;;
22634;SDS011;11484;50.858;4.384;2022-12-07T15:07:05;6.75;;;2.78;;
22634;SDS011;11484;50.858;4.384;2022-12-07T15:09:34;6.60;;;3.28;;
22634;SDS011;11484;50.858;4.384;2022-12-07T15:12:00;29.52;;;19.95;;
22634;SDS011;11484;50.858;4.384;2022-12-07T15:14:26;21.25;;;12.18;;
22634;SDS011;11484;50.858;4.384;2022-12-07T15:16:52;33.15;;;16.92;;
22634;SDS011;11484;50.858;4.384;2022-12-07T15:19:18;39.38;;;20.95;;
22634;SDS011;11484;50.858;4.384;2022-12-07T15:21:50;28.90;;;15.95;;
22634;SDS011;11484;50.858;4.384;2022-12-07T15:24:17;20.13;;;12.07;;
22634;SDS011;11484;50.858;4.384;2022-12-07T15:26:44;7.05;;;4.20;;
22634;SDS011;11484;50.858;4.384;2022-12-07T15:29:10;21.85;;;14.00;;
22634;SDS011;11484;50.858;4.384;2022-12-07T15:31:36;37.35;;;20.45;;
22634;SDS011;11484;50.858;4.384;2022-12-07T15:34:03;24.90;;;12.45;;
22634;SDS011;11484;50.858;4.384;2022-12-07T15:36:30;22.27;;;13.10;;
22634;SDS011;11484;50.858;4.384;2022-12-07T15:38:57;27.13;;;14.43;;
22634;SDS011;11484;50.858;4.384;2022-12-07T15:41:23;10.70;;;4.82;;
22634;SDS011;11484;50.858;4.384;2022-12-07T15:43:50;14.68;;;12.63;;
22634;SDS011;11484;50.858;4.384;2022-12-07T15:46:38;8.60;;;5.88;;
22634;SDS011;11484;50.858;4.384;2022-12-07T15:49:07;8.38;;;3.97;;
22634;SDS011;11484;50.858;4.384;2022-12-07T15:51:39;7.50;;;4.22;;
22634;SDS011;11484;50.858;4.384;2022-12-07T15:54:05;6.22;;;4.10;;
22634;SDS011;11484;50.858;4.384;2022-12-07T15:56:31;8.45;;;4.10;;
22634;SDS011;11484;50.858;4.384;2022-12-07T15:58:57;8.60;;;5.13;;
22634;SDS011;11484;50.858;4.384;2022-12-07T16:01:23;7.53;;;5.15;;
22634;SDS011;11484;50.858;4.384;2022-12-07T16:03:49;6.47;;;4.75;;
22634;SDS011;11484;50.858;4.384;2022-12-07T16:06:15;8.68;;;4.68;;
22634;SDS011;11484;50.858;4.384;2022-12-07T16:08:43;8.13;;;4.85;;
22634;SDS011;11484;50.858;4.384;2022-12-07T16:11:11;10.18;;;5.75;;
22634;SDS011;11484;50.858;4.384;2022-12-07T16:13:40;10.13;;;6.40;;
22634;SDS011;11484;50.858;4.384;2022-12-07T16:16:11;9.23;;;6.05;;
22634;SDS011;11484;50.858;4.384;2022-12-07T16:18:39;8.68;;;6.05;;
22634;SDS011;11484;50.858;4.384;2022-12-07T16:21:04;9.63;;;6.22;;
22634;SDS011;11484;50.858;4.384;2022-12-07T16:23:31;9.70;;;6.03;;
22634;SDS011;11484;50.858;4.384;2022-12-07T16:26:04;12.50;;;8.05;;
22634;SDS011;11484;50.858;4.384;2022-12-07T16:28:35;11.43;;;6.05;;
22634;SDS011;11484;50.858;4.384;2022-12-07T16:31:02;11.80;;;6.53;;
22634;SDS011;11484;50.858;4.384;2022-12-07T16:33:29;10.35;;;4.80;;
22634;SDS011;11484;50.858;4.384;2022-12-07T16:35:55;8.88;;;5.25;;
22634;SDS011;11484;50.858;4.384;2022-12-07T16:38:21;10.73;;;5.80;;
22634;SDS011;11484;50.858;4.384;2022-12-07T16:40:47;9.02;;;5.57;;
22634;SDS011;11484;50.858;4.384;2022-12-07T16:43:13;8.32;;;5.32;;
22634;SDS011;11484;50.858;4.384;2022-12-07T16:45:39;8.25;;;4.88;;
22634;SDS011;11484;50.858;4.384;2022-12-07T16:48:04;10.15;;;5.38;;
22634;SDS011;11484;50.858;4.384;2022-12-07T16:50:30;13.93;;;8.30;;
22634;SDS011;11484;50.858;4.384;2022-12-07T16:52:56;9.93;;;5.55;;
22634;SDS011;11484;50.858;4.384;2022-12-07T16:55:22;13.73;;;6.22;;
22634;SDS011;11484;50.858;4.384;2022-12-07T16:57:48;10.50;;;6.50;;
22634;SDS011;11484;50.858;4.384;2022-12-07T17:00:14;12.43;;;6.88;;
22634;SDS011;11484;50.858;4.384;2022-12-07T17:02:41;11.35;;;5.40;;
22634;SDS011;11484;50.858;4.384;2022-12-07T17:05:07;11.57;;;4.85;;
22634;SDS011;11484;50.858;4.384;2022-12-07T17:07:33;11.43;;;6.28;;
22634;SDS011;11484;50.858;4.384;2022-12-07T17:09:59;10.90;;;6.30;;
22634;SDS011;11484;50.858;4.384;2022-12-07T17:12:24;13.38;;;6.57;;
22634;SDS011;11484;50.858;4.384;2022-12-07T17:14:51;19.67;;;10.20;;
22634;SDS011;11484;50.858;4.384;2022-12-07T17:17:37;12.30;;;7.60;;